Time;durP1;ratioP1;P1;durP2;ratioP2;P2;SDS_P1;SDS_P2;PMS_P1;PMS_P2;Temp;Humidity;BMP_temperature;BMP_pressure;BME280_temperature;BME280_humidity;BME280_pressure;Samples;Min_cycle;Max_cycle;Signal;HPM_P1;HPM_P2
2022/04/04 00:09:25;;;;;;;20.70;9.40;;;;;;;-0.77;67.64;98535.50;432526;1271;98045;-42
2022/04/04 00:19:33;;;;;;;26.80;14.70;;;;;;;-0.66;67.60;98530.83;432323;1273;112474;-41
2022/04/04 00:29:40;;;;;;;31.60;14.10;;;;;;;-0.71;67.97;98516.70;432288;1273;108797;-41
2022/04/04 00:39:46;;;;;;;22.00;12.90;;;;;;;-0.78;67.97;98515.86;432411;1273;99256;-42
2022/04/04 00:49:53;;;;;;;26.20;12.20;;;;;;;-0.81;67.87;98510.64;432337;1272;108859;-40
2022/04/04 01:00:01;;;;;;;23.90;13.10;;;;;;;-0.85;68.24;98500.61;432564;1271;99299;-41
2022/04/04 01:10:10;;;;;;;20.20;10.50;;;;;;;-0.83;68.38;98501.55;433233;1260;112566;-41
2022/04/04 01:20:17;;;;;;;17.30;9.20;;;;;;;-0.70;68.41;98491.89;433169;1269;108761;-42
2022/04/04 01:30:25;;;;;;;27.00;12.00;;;;;;;-0.70;68.46;98486.45;433180;1270;99248;-40
2022/04/04 01:40:32;;;;;;;23.20;11.20;;;;;;;-0.80;68.51;98473.88;433187;1269;112602;-40
2022/04/04 01:50:40;;;;;;;20.90;10.30;;;;;;;-0.93;68.50;98461.38;432558;1270;108855;-41
2022/04/04 02:00:47;;;;;;;23.70;11.60;;;;;;;-1.06;68.62;98454.51;433016;1270;99397;-40
2022/04/04 02:10:54;;;;;;;22.30;10.60;;;;;;;-1.13;68.46;98447.40;433205;1270;112403;-41
2022/04/04 02:21:02;;;;;;;22.00;11.00;;;;;;;-1.19;68.60;98440.11;433225;1269;108748;-41
2022/04/04 02:31:09;;;;;;;17.90;9.20;;;;;;;-1.14;68.72;98438.42;433178;1268;99137;-40
2022/04/04 02:41:17;;;;;;;14.10;7.20;;;;;;;-1.11;68.77;98428.76;433074;1269;109550;-40
2022/04/04 02:51:24;;;;;;;19.10;10.30;;;;;;;-1.09;68.93;98427.97;433190;1270;98019;-41
2022/04/04 03:01:31;;;;;;;20.90;10.60;;;;;;;-1.13;69.05;98420.41;433122;1269;112403;-40
2022/04/04 03:11:39;;;;;;;17.70;9.50;;;;;;;-1.15;69.02;98413.28;433122;1270;108186;-41
2022/04/04 03:21:46;;;;;;;20.50;8.60;;;;;;;-1.18;68.81;98415.27;433071;1270;98035;-41
2022/04/04 03:31:54;;;;;;;14.50;9.00;;;;;;;-1.22;69.06;98414.94;433196;1270;112563;-41
2022/04/04 03:42:01;;;;;;;11.50;6.90;;;;;;;-1.25;69.09;98406.24;433114;1270;108668;-41
2022/04/04 03:52:10;;;;;;;14.70;7.10;;;;;;;-1.25;69.23;98410.10;432413;1270;99188;-40
2022/04/04 04:02:17;;;;;;;23.10;10.50;;;;;;;-1.30;69.32;98412.54;432464;1270;108246;-40
2022/04/04 04:12:25;;;;;;;16.10;9.70;;;;;;;-1.34;69.42;98402.93;433049;1270;99275;-40
2022/04/04 04:22:32;;;;;;;20.00;11.30;;;;;;;-1.32;69.99;98395.45;432987;1270;112587;-42
2022/04/04 04:32:39;;;;;;;21.10;10.10;;;;;;;-1.28;69.79;98386.50;432795;1270;108734;-41
2022/04/04 04:42:48;;;;;;;19.60;10.70;;;;;;;-1.19;69.97;98381.77;432952;1270;99285;-41
2022/04/04 04:52:56;;;;;;;17.50;10.50;;;;;;;-0.97;70.31;98379.61;433020;1270;112466;-41
2022/04/04 05:13:29;;;;;;;18.70;12.70;;;;;;;-0.70;70.68;98376.73;432593;1270;99277;-40
2022/04/04 05:23:36;;;;;;;20.60;13.50;;;;;;;-0.66;70.85;98378.37;433209;1269;112413;-40
2022/04/04 05:33:49;;;;;;;28.60;17.50;;;;;;;-0.57;70.93;98385.08;433157;1270;107604;-41
2022/04/04 05:43:57;;;;;;;21.40;11.40;;;;;;;-0.39;71.16;98387.11;433137;1270;99287;-40
2022/04/04 05:54:05;;;;;;;24.90;9.10;;;;;;;-0.12;70.87;98381.48;432900;1269;112374;-41
2022/04/04 06:04:12;;;;;;;31.70;16.30;;;;;;;0.08;71.13;98383.40;432967;1270;109035;-41
2022/04/04 06:14:20;;;;;;;22.60;13.30;;;;;;;0.16;71.14;98399.20;432985;1270;99372;-41
2022/04/04 06:24:28;;;;;;;24.40;15.80;;;;;;;-0.09;71.53;98407.50;433045;1270;112405;-39
2022/04/04 06:34:35;;;;;;;16.70;12.40;;;;;;;-0.32;72.09;98415.09;432946;1271;108879;-43
2022/04/04 06:44:46;;;;;;;17.90;11.40;;;;;;;-0.23;72.32;98416.69;432684;1270;98049;-41
2022/04/04 06:54:54;;;;;;;20.60;14.40;;;;;;;0.15;72.75;98411.52;432944;1270;112416;-41
2022/04/04 07:05:04;;;;;;;29.60;19.20;;;;;;;0.42;72.92;98412.17;433018;1270;109033;-41
2022/04/04 07:15:11;;;;;;;39.10;22.60;;;;;;;0.79;72.99;98417.35;433061;1269;99287;-40
2022/04/04 07:25:21;;;;;;;32.90;21.70;;;;;;;1.37;72.77;98408.23;432830;1270;111586;-40
2022/04/04 07:35:28;;;;;;;23.70;14.70;;;;;;;2.32;73.00;98402.41;433011;1270;109306;-41
2022/04/04 07:45:35;;;;;;;21.60;14.40;;;;;;;3.29;71.97;98394.73;433121;1270;98899;-42
2022/04/04 07:55:49;;;;;;;32.10;17.00;;;;;;;3.45;71.42;98391.38;433081;1271;112621;-42
2022/04/04 08:05:56;;;;;;;26.00;15.10;;;;;;;4.03;71.47;98382.52;432546;1271;108808;-41
2022/04/04 08:16:03;;;;;;;22.90;14.10;;;;;;;4.98;70.65;98370.39;432796;1270;99344;-40
2022/04/04 08:26:11;;;;;;;20.30;14.30;;;;;;;5.12;69.05;98373.40;432542;1270;112509;-41
2022/04/04 08:36:18;;;;;;;22.80;13.90;;;;;;;4.55;68.46;98360.92;433002;1269;107800;-41
2022/04/04 08:46:27;;;;;;;34.40;21.90;;;;;;;4.73;68.91;98345.61;433217;1269;99276;-39
2022/04/04 09:06:50;;;;;;;19.80;14.00;;;;;;;5.21;67.21;98323.75;419232;1309;636356;-41
2022/04/04 09:27:10;;;;;;;20.40;14.50;;;;;;;5.48;66.43;98294.92;430749;1279;107662;-40
2022/04/04 09:37:17;;;;;;;18.50;13.30;;;;;;;5.75;65.79;98280.33;430558;1279;107436;-42
2022/04/04 09:57:31;;;;;;;19.70;13.20;;;;;;;6.20;64.14;98235.50;430819;1277;95694;-40
2022/04/04 10:07:39;;;;;;;15.30;11.20;;;;;;;6.15;63.95;98219.64;431102;1277;108377;-44
2022/04/04 10:17:47;;;;;;;14.30;10.20;;;;;;;6.34;63.66;98195.74;430798;1277;108864;-40
2022/04/04 10:27:55;;;;;;;10.90;7.10;;;;;;;6.13;62.97;98182.91;430747;1277;107780;-41
2022/04/04 10:38:03;;;;;;;;;;;;;;;6.14;61.99;98167.51;430794;1277;95619;-42
2022/04/04 10:48:09;;;;;;;15.10;8.10;;;;;;;6.53;61.03;98148.92;430913;1276;95319;-40
2022/04/04 10:58:15;;;;;;;9.60;6.80;;;;;;;6.51;60.76;98139.24;430834;1275;109776;-41
2022/04/04 11:18:51;;;;;;;11.50;6.30;;;;;;;6.40;60.27;98104.92;430720;1277;108818;-41
2022/04/04 11:29:00;;;;;;;9.90;6.50;;;;;;;6.40;60.34;98095.27;430650;1277;96016;-41
2022/04/04 11:49:16;;;;;;;12.30;7.30;;;;;;;6.15;58.90;98071.77;430690;1277;109914;-40
2022/04/04 11:59:28;;;;;;;6.70;5.30;;;;;;;5.97;58.07;98062.85;431020;1277;108838;-42
2022/04/04 12:09:36;;;;;;;9.90;7.30;;;;;;;5.94;58.11;98043.73;430727;1277;108803;-41
2022/04/04 12:19:50;;;;;;;9.30;6.30;;;;;;;6.59;56.86;98020.02;430732;1277;95358;-40
2022/04/04 12:40:20;;;;;;;9.60;6.60;;;;;;;6.40;56.03;97996.04;433555;1269;109739;-40
2022/04/04 12:50:25;;;;;;;12.80;8.20;;;;;;;6.37;56.13;97978.42;433891;1267;109311;-41
2022/04/04 13:10:39;;;;;;;16.40;8.90;;;;;;;6.03;56.00;97941.45;433754;1269;95321;-41
2022/04/04 13:20:47;;;;;;;13.10;8.80;;;;;;;6.00;56.39;97922.95;433454;1271;109384;-44
2022/04/04 13:30:56;;;;;;;10.40;6.90;;;;;;;5.98;56.50;97910.08;432939;1270;108807;-41
2022/04/04 13:41:03;;;;;;;13.10;8.60;;;;;;;5.66;56.24;97898.09;433145;1270;108760;-41
2022/04/04 14:11:28;;;;;;;13.50;7.00;;;;;;;5.78;56.46;97815.05;433905;1267;109290;-41
2022/04/04 14:21:35;;;;;;;12.30;7.50;;;;;;;5.83;56.73;97790.39;433922;1268;108908;-42
2022/04/04 14:31:43;;;;;;;10.30;6.90;;;;;;;5.72;56.52;97764.02;433986;1268;109397;-41
2022/04/04 14:41:49;;;;;;;16.40;8.90;;;;;;;5.58;56.31;97742.30;433688;1270;96136;-44
2022/04/04 14:51:56;;;;;;;14.00;8.90;;;;;;;5.54;56.43;97717.70;434186;1268;95336;-42
2022/04/04 15:02:03;;;;;;;12.50;7.30;;;;;;;5.67;56.10;97691.90;433792;1269;109811;-40
2022/04/04 15:12:09;;;;;;;16.10;8.50;;;;;;;5.63;55.40;97673.89;433612;1271;107980;-41
2022/04/04 15:22:16;;;;;;;17.30;9.40;;;;;;;5.64;54.50;97646.58;433508;1269;108844;-40
2022/04/04 15:32:24;;;;;;;14.20;9.10;;;;;;;5.69;54.10;97634.50;434162;1266;96159;-40
2022/04/04 15:42:31;;;;;;;11.80;7.60;;;;;;;5.59;53.17;97623.61;434273;1266;95478;-43
2022/04/04 15:52:39;;;;;;;10.50;7.50;;;;;;;5.43;53.12;97606.34;433908;1267;109593;-41
2022/04/04 16:02:46;;;;;;;12.00;7.00;;;;;;;5.27;52.56;97584.02;434388;1265;108866;-43
2022/04/04 16:12:52;;;;;;;7.10;6.10;;;;;;;5.13;51.91;97563.10;434118;1267;108533;-40
2022/04/04 16:22:59;;;;;;;10.50;8.30;;;;;;;4.95;52.10;97544.34;434159;1267;95310;-42
2022/04/04 16:33:05;;;;;;;12.10;7.20;;;;;;;4.78;51.83;97528.26;434273;1268;95264;-43
2022/04/04 16:43:13;;;;;;;25.90;9.40;;;;;;;4.63;51.48;97507.88;434306;1267;108860;-41
2022/04/04 16:53:21;;;;;;;14.30;7.30;;;;;;;4.50;51.18;97488.58;434380;1268;108849;-40
2022/04/04 17:03:29;;;;;;;14.20;8.30;;;;;;;4.41;51.26;97473.85;434128;1266;108616;-42
2022/04/04 17:13:37;;;;;;;16.30;8.30;;;;;;;4.31;51.55;97453.40;434095;1268;95972;-43
2022/04/04 17:23:44;;;;;;;13.20;7.90;;;;;;;4.22;51.39;97436.73;434344;1265;95319;-41
2022/04/04 17:33:52;;;;;;;15.50;8.40;;;;;;;4.17;51.64;97426.53;434374;1265;109683;-40
2022/04/04 17:44:00;;;;;;;15.30;7.60;;;;;;;4.14;51.47;97410.59;434283;1266;108797;-40
2022/04/04 17:54:14;;;;;;;15.60;8.80;;;;;;;4.09;51.50;97399.58;434415;1265;108749;-43
2022/04/04 18:14:27;;;;;;;17.10;8.90;;;;;;;3.97;51.38;97374.52;434252;1267;96539;-41
2022/04/04 18:24:33;;;;;;;21.50;11.80;;;;;;;3.92;51.53;97359.69;434034;1268;110170;-40
2022/04/04 18:34:40;;;;;;;23.90;11.00;;;;;;;3.88;51.23;97347.62;434445;1266;108366;-40
2022/04/04 18:44:47;;;;;;;21.40;10.70;;;;;;;3.86;51.54;97336.46;434295;1268;108978;-45
2022/04/04 18:54:54;;;;;;;27.40;11.00;;;;;;;3.88;51.26;97335.15;434264;1265;96546;-41
2022/04/04 19:05:00;;;;;;;26.90;12.30;;;;;;;3.89;51.46;97330.88;434249;1268;96143;-42
2022/04/04 19:15:06;;;;;;;20.30;9.20;;;;;;;3.88;51.60;97328.55;434176;1266;109791;-43
2022/04/04 19:25:11;;;;;;;23.70;11.50;;;;;;;3.88;51.96;97322.55;434213;1265;109569;-44
2022/04/04 19:35:19;;;;;;;19.80;8.90;;;;;;;3.90;51.90;97315.08;434140;1267;107890;-41
2022/04/04 19:45:26;;;;;;;19.60;9.20;;;;;;;3.93;52.18;97311.02;434295;1268;96127;-41
2022/04/04 19:55:33;;;;;;;15.00;9.30;;;;;;;3.96;51.94;97296.62;434233;1268;96452;-42
2022/04/04 20:05:39;;;;;;;10.00;6.60;;;;;;;4.06;52.14;97292.61;434261;1266;109587;-41
2022/04/04 20:46:10;;;;;;;12.30;8.20;;;;;;;3.67;56.10;97256.39;434153;1265;96030;-41
2022/04/04 20:56:18;;;;;;;13.90;7.90;;;;;;;3.49;57.40;97246.66;434155;1268;109911;-43
2022/04/04 21:06:25;;;;;;;14.40;9.00;;;;;;;3.37;58.19;97227.98;434104;1267;107872;-41
2022/04/04 21:16:33;;;;;;;13.90;7.80;;;;;;;3.30;58.73;97219.96;431226;1267;4125602;-40
2022/04/04 21:26:39;;;;;;;15.10;8.50;;;;;;;3.26;59.00;97198.40;434273;1265;95329;-41
2022/04/04 21:36:46;;;;;;;14.30;9.10;;;;;;;3.26;59.28;97193.05;434477;1265;109789;-42
2022/04/04 22:07:04;;;;;;;11.10;7.00;;;;;;;3.36;58.84;97136.39;434531;1265;95278;-40
2022/04/04 22:17:11;;;;;;;11.40;7.40;;;;;;;3.43;58.97;97124.48;434623;1266;95333;-41
2022/04/04 22:27:18;;;;;;;13.80;8.10;;;;;;;3.46;59.18;97125.48;434287;1267;108855;-41
2022/04/04 22:37:25;;;;;;;15.30;8.70;;;;;;;3.47;59.44;97114.65;434122;1266;109266;-41
2022/04/04 22:47:32;;;;;;;14.90;7.90;;;;;;;3.44;59.67;97113.38;434367;1267;95368;-41
2022/04/04 22:57:39;;;;;;;13.30;8.70;;;;;;;3.37;60.34;97108.08;434272;1265;95677;-42
2022/04/04 23:07:47;;;;;;;11.30;7.40;;;;;;;3.24;61.89;97111.58;434219;1266;109772;-43
2022/04/04 23:17:54;;;;;;;7.50;6.40;;;;;;;2.98;64.00;97111.39;434200;1265;108750;-40
2022/04/04 23:28:01;;;;;;;15.20;6.70;;;;;;;2.59;66.09;97112.13;434177;1265;107788;-41
2022/04/04 23:38:08;;;;;;;12.80;9.90;;;;;;;2.26;66.78;97097.42;434009;1265;95672;-41
2022/04/04 23:48:17;;;;;;;15.20;10.30;;;;;;;2.01;67.22;97085.14;434119;1267;109450;-40
2022/04/04 23:58:24;;;;;;;10.40;8.20;;;;;;;1.81;67.44;97076.70;433882;1266;109229;-42
